Time;durP1;ratioP1;P1;durP2;ratioP2;P2;SDS_P1;SDS_P2;PMS_P1;PMS_P2;Temp;Humidity;BMP_temperature;BMP_pressure;BME280_temperature;BME280_humidity;BME280_pressure;Samples;Min_cycle;Max_cycle;Signal;HPM_P1;HPM_P2
2023/10/28 00:01:48;;;;;;;15.07;11.43;;;10.10;1.00;;;;;;5129424;27;20433;-74
2023/10/28 00:04:15;;;;;;;14.03;11.30;;;10.10;1.00;;;;;;5129979;27;20456;-74
2023/10/28 00:06:42;;;;;;;14.93;11.70;;;10.10;1.00;;;;;;5125139;27;21046;-76
2023/10/28 00:09:10;;;;;;;15.40;12.40;;;10.10;1.00;;;;;;5124776;27;20558;-76
2023/10/28 00:11:38;;;;;;;14.87;11.27;;;10.00;1.00;;;;;;5129003;27;20428;-76
2023/10/28 00:14:06;;;;;;;13.30;10.97;;;9.90;1.00;;;;;;5125968;27;20461;-76
2023/10/28 00:16:35;;;;;;;12.60;10.80;;;10.00;1.00;;;;;;5128992;27;20518;-76
2023/10/28 00:19:17;;;;;;;11.93;10.17;;;10.00;1.00;;;;;;5148076;27;20474;-76
2023/10/28 00:21:44;;;;;;;14.83;10.43;;;10.10;1.00;;;;;;5149721;27;20955;-74
2023/10/28 00:24:11;;;;;;;12.83;10.80;;;10.10;1.00;;;;;;5132091;27;20452;-75
2023/10/28 00:26:39;;;;;;;10.90;9.17;;;10.20;1.00;;;;;;5139569;27;20436;-75
2023/10/28 00:29:07;;;;;;;12.50;10.90;;;10.10;1.00;;;;;;5130487;27;20469;-75
2023/10/28 00:31:34;;;;;;;12.40;10.60;;;10.10;1.00;;;;;;5128971;27;20468;-74
2023/10/28 00:34:01;;;;;;;12.30;10.80;;;10.20;1.00;;;;;;5130769;27;20553;-75
2023/10/28 00:36:28;;;;;;;11.70;10.10;;;10.10;1.00;;;;;;5146072;27;20586;-77
2023/10/28 00:38:56;;;;;;;11.77;9.73;;;10.20;1.00;;;;;;5155400;27;20552;-75
2023/10/28 00:41:23;;;;;;;10.63;9.40;;;10.20;1.00;;;;;;5148368;27;20598;-75
2023/10/28 00:43:51;;;;;;;10.83;9.60;;;10.10;1.00;;;;;;5134248;27;20539;-75
2023/10/28 00:46:18;;;;;;;9.97;8.97;;;10.10;1.00;;;;;;5135515;27;20538;-77
2023/10/28 00:48:45;;;;;;;11.93;9.37;;;10.10;1.00;;;;;;5132313;27;20554;-75
2023/10/28 00:51:12;;;;;;;12.50;10.23;;;10.20;1.00;;;;;;5133245;27;20609;-75
2023/10/28 00:53:39;;;;;;;12.70;9.50;;;10.20;1.00;;;;;;5133846;27;21718;-75
2023/10/28 00:56:06;;;;;;;12.03;9.80;;;10.20;1.00;;;;;;5132580;27;21036;-75
2023/10/28 00:58:35;;;;;;;12.00;9.80;;;10.20;1.00;;;;;;5134408;27;20465;-74
2023/10/28 01:01:05;;;;;;;10.30;9.00;;;10.10;1.00;;;;;;5133387;27;20453;-74
2023/10/28 01:03:33;;;;;;;14.50;10.30;;;10.10;1.00;;;;;;5132083;27;20463;-74
2023/10/28 01:06:01;;;;;;;11.40;10.20;;;10.10;1.00;;;;;;5131896;27;20461;-69
2023/10/28 01:08:27;;;;;;;10.47;8.30;;;10.10;1.00;;;;;;5130687;27;20538;-69
2023/10/28 01:11:01;;;;;;;10.97;9.20;;;10.10;1.00;;;;;;5131588;27;21029;-70
2023/10/28 01:13:28;;;;;;;12.30;8.40;;;10.10;1.00;;;;;;5132962;27;20475;-70
2023/10/28 01:15:55;;;;;;;10.40;8.97;;;10.10;1.00;;;;;;5133419;27;20540;-70
2023/10/28 01:18:24;;;;;;;11.40;9.60;;;10.10;1.00;;;;;;5133608;27;20825;-71
2023/10/28 01:20:51;;;;;;;10.37;9.13;;;10.10;1.00;;;;;;5132025;27;20449;-74
2023/10/28 01:23:19;;;;;;;10.00;9.00;;;10.10;1.00;;;;;;5132406;27;20996;-70
2023/10/28 01:25:46;;;;;;;11.30;9.27;;;10.10;1.00;;;;;;5132350;27;20513;-73
2023/10/28 01:28:13;;;;;;;11.30;8.97;;;10.00;1.00;;;;;;5140280;27;20559;-70
2023/10/28 01:30:40;;;;;;;11.20;8.73;;;10.00;1.00;;;;;;5129254;27;21185;-70
2023/10/28 01:33:07;;;;;;;10.83;8.13;;;10.10;1.00;;;;;;5130288;27;20552;-70
2023/10/28 01:35:34;;;;;;;11.53;9.40;;;10.20;1.00;;;;;;5152774;27;20920;-70
2023/10/28 01:38:03;;;;;;;10.40;8.87;;;10.10;1.00;;;;;;5132486;27;20499;-70
2023/10/28 01:40:33;;;;;;;9.57;8.53;;;10.00;1.00;;;;;;5133985;27;20913;-70
2023/10/28 01:43:03;;;;;;;10.90;9.77;;;10.00;1.00;;;;;;5143754;27;20476;-69
2023/10/28 01:45:29;;;;;;;10.20;9.00;;;10.00;1.00;;;;;;5143908;27;20448;-71
2023/10/28 01:47:56;;;;;;;11.27;9.40;;;10.00;1.00;;;;;;5149029;27;20552;-72
2023/10/28 01:50:23;;;;;;;9.83;8.73;;;10.00;1.00;;;;;;5152220;27;20504;-73
2023/10/28 01:52:50;;;;;;;8.50;7.70;;;10.10;1.00;;;;;;5143825;27;20466;-71
2023/10/28 01:55:17;;;;;;;9.90;8.10;;;10.10;1.00;;;;;;5146208;27;20479;-73
2023/10/28 01:57:46;;;;;;;11.13;8.57;;;10.00;1.00;;;;;;5131874;27;20570;-72
2023/10/28 02:00:13;;;;;;;12.07;8.70;;;10.00;1.00;;;;;;5129699;27;20445;-70
2023/10/28 02:02:41;;;;;;;13.53;11.97;;;10.00;1.00;;;;;;5130243;27;20437;-73
2023/10/28 02:05:09;;;;;;;9.73;8.73;;;10.10;1.00;;;;;;5137125;27;21293;-73
2023/10/28 02:07:36;;;;;;;10.40;8.40;;;10.10;1.00;;;;;;5131340;27;20897;-71
2023/10/28 02:10:04;;;;;;;11.17;8.80;;;10.10;1.00;;;;;;5129193;27;20514;-73
2023/10/28 02:12:34;;;;;;;10.40;8.90;;;10.10;1.00;;;;;;5144155;27;21040;-72
2023/10/28 02:15:03;;;;;;;10.47;8.33;;;10.00;1.00;;;;;;5145514;27;20452;-70
2023/10/28 02:17:30;;;;;;;10.10;8.20;;;10.00;1.00;;;;;;5132033;27;20473;-71
2023/10/28 02:19:57;;;;;;;10.80;7.70;;;10.10;1.00;;;;;;5136479;27;20465;-72
2023/10/28 02:22:24;;;;;;;9.37;8.47;;;10.10;1.00;;;;;;5147462;27;21111;-74
2023/10/28 02:24:51;;;;;;;10.80;8.67;;;10.10;1.00;;;;;;5131238;27;20457;-72
2023/10/28 02:27:18;;;;;;;9.10;7.20;;;10.10;1.00;;;;;;5147287;27;20478;-72
2023/10/28 02:29:45;;;;;;;9.27;8.30;;;10.00;1.00;;;;;;5148570;27;21246;-72
2023/10/28 02:32:13;;;;;;;8.63;7.73;;;10.00;1.00;;;;;;5136305;27;20902;-71
2023/10/28 02:34:42;;;;;;;8.77;7.87;;;10.00;1.00;;;;;;5147537;27;20452;-70
2023/10/28 02:37:10;;;;;;;10.47;8.10;;;10.00;1.00;;;;;;5129964;27;20967;-71
2023/10/28 02:39:37;;;;;;;8.53;7.63;;;10.00;1.00;;;;;;5127747;27;21310;-71
2023/10/28 02:42:04;;;;;;;9.27;8.37;;;10.00;1.00;;;;;;5146063;27;20456;-74
2023/10/28 02:44:32;;;;;;;8.00;7.20;;;10.10;1.00;;;;;;5136199;27;21391;-72
2023/10/28 02:46:59;;;;;;;8.33;7.50;;;10.10;1.00;;;;;;5138136;27;20561;-71
2023/10/28 02:49:27;;;;;;;8.30;6.77;;;10.00;1.00;;;;;;5135707;27;20486;-72
2023/10/28 02:51:54;;;;;;;10.90;7.70;;;10.10;1.00;;;;;;5135083;27;20539;-71
2023/10/28 02:54:21;;;;;;;8.00;7.13;;;10.00;1.00;;;;;;5138303;27;20503;-71
2023/10/28 02:56:48;;;;;;;8.33;7.53;;;10.00;1.00;;;;;;5129301;27;21267;-71
2023/10/28 02:59:15;;;;;;;8.23;6.60;;;10.00;1.00;;;;;;5143928;27;20920;-71
2023/10/28 03:01:42;;;;;;;7.83;7.03;;;10.00;1.00;;;;;;5143726;27;21023;-72
2023/10/28 03:04:09;;;;;;;8.70;7.37;;;10.00;1.00;;;;;;5132325;27;20457;-71
2023/10/28 03:06:37;;;;;;;7.43;6.67;;;10.00;1.00;;;;;;5144191;27;21039;-73
2023/10/28 03:09:04;;;;;;;8.13;7.03;;;10.00;1.00;;;;;;5147227;27;20532;-71
2023/10/28 03:11:31;;;;;;;7.17;6.10;;;9.90;1.00;;;;;;5135972;27;20535;-71
2023/10/28 03:13:57;;;;;;;8.70;7.30;;;9.90;1.00;;;;;;5131383;27;20951;-71
2023/10/28 03:16:25;;;;;;;7.10;6.20;;;9.80;1.00;;;;;;5129831;27;21291;-75
2023/10/28 03:18:51;;;;;;;7.07;6.13;;;9.80;1.00;;;;;;5130110;27;21168;-73
2023/10/28 03:21:19;;;;;;;7.87;6.10;;;9.80;1.00;;;;;;5129324;27;20548;-71
2023/10/28 03:23:47;;;;;;;8.03;7.23;;;9.80;1.00;;;;;;5138983;27;20483;-71
2023/10/28 03:26:14;;;;;;;6.93;6.23;;;9.80;1.00;;;;;;5127244;27;20553;-71
2023/10/28 03:28:41;;;;;;;8.23;6.27;;;9.80;1.00;;;;;;5131160;27;20452;-71
2023/10/28 03:31:09;;;;;;;6.20;5.40;;;9.80;1.00;;;;;;5128969;27;21275;-71
2023/10/28 03:33:38;;;;;;;5.73;5.13;;;9.90;1.00;;;;;;5126681;27;20465;-70
2023/10/28 03:36:08;;;;;;;6.27;5.67;;;9.90;1.00;;;;;;5128201;27;21257;-71
2023/10/28 03:38:35;;;;;;;6.17;5.57;;;9.90;1.00;;;;;;5129493;27;20453;-70
2023/10/28 03:41:07;;;;;;;5.57;5.00;;;9.90;1.00;;;;;;5139480;27;20955;-73
2023/10/28 03:43:34;;;;;;;5.80;5.30;;;10.00;1.00;;;;;;5132922;27;20476;-70
2023/10/28 03:46:01;;;;;;;5.73;5.17;;;9.90;1.00;;;;;;5129725;27;20518;-70
2023/10/28 03:48:28;;;;;;;6.00;5.40;;;9.90;1.00;;;;;;5127437;27;20590;-71
2023/10/28 03:51:00;;;;;;;5.70;5.17;;;9.90;1.00;;;;;;5128906;27;21228;-70
2023/10/28 03:53:27;;;;;;;5.87;4.97;;;9.90;1.00;;;;;;5130837;27;20465;-71
2023/10/28 03:55:54;;;;;;;5.43;4.80;;;9.90;1.00;;;;;;5128377;27;20483;-71
2023/10/28 03:58:22;;;;;;;6.20;4.93;;;10.00;1.00;;;;;;5137465;27;20480;-71
2023/10/28 04:00:53;;;;;;;5.27;4.77;;;10.00;1.00;;;;;;5144005;27;20547;-69
2023/10/28 04:03:20;;;;;;;6.00;5.50;;;10.00;1.00;;;;;;5124217;27;20540;-70
2023/10/28 04:05:47;;;;;;;5.40;4.90;;;10.00;1.00;;;;;;5137095;27;21009;-70
2023/10/28 04:08:14;;;;;;;5.17;4.67;;;10.00;1.00;;;;;;5133495;27;20472;-71
2023/10/28 04:10:41;;;;;;;6.10;5.60;;;10.00;1.00;;;;;;5151616;27;20543;-70
2023/10/28 04:13:08;;;;;;;5.30;4.80;;;10.00;1.00;;;;;;5148761;27;21151;-71
2023/10/28 04:15:36;;;;;;;4.60;4.20;;;9.90;1.00;;;;;;5148671;27;21075;-76
2023/10/28 04:18:03;;;;;;;7.20;4.63;;;9.90;1.00;;;;;;5126685;27;20962;-71
2023/10/28 04:20:31;;;;;;;6.50;5.20;;;9.90;1.00;;;;;;5132505;27;21382;-70
2023/10/28 04:22:58;;;;;;;4.90;4.43;;;9.90;1.00;;;;;;5130907;27;20476;-74
2023/10/28 04:25:25;;;;;;;4.57;3.97;;;9.90;1.00;;;;;;5131186;27;20484;-70
2023/10/28 04:27:52;;;;;;;6.03;5.07;;;9.90;1.00;;;;;;5132345;27;20538;-71
2023/10/28 04:30:19;;;;;;;4.93;4.53;;;9.80;1.00;;;;;;5129399;27;20475;-72
2023/10/28 04:32:47;;;;;;;5.40;4.90;;;9.80;1.00;;;;;;5129233;27;20470;-72
2023/10/28 04:35:15;;;;;;;4.23;3.83;;;9.80;1.00;;;;;;5129531;27;20468;-72
2023/10/28 04:37:42;;;;;;;5.63;5.20;;;9.70;1.00;;;;;;5131634;27;20894;-75
2023/10/28 04:40:12;;;;;;;4.83;4.37;;;9.70;1.00;;;;;;5131363;27;20835;-72
2023/10/28 04:42:38;;;;;;;5.00;4.60;;;9.70;1.00;;;;;;5128789;27;20543;-72
2023/10/28 04:45:07;;;;;;;4.83;4.43;;;9.70;1.00;;;;;;5128881;27;21272;-72
2023/10/28 04:47:35;;;;;;;5.10;4.60;;;9.80;1.00;;;;;;5129663;27;21117;-72
2023/10/28 04:50:03;;;;;;;5.63;4.60;;;9.80;1.00;;;;;;5130676;27;20554;-72
2023/10/28 04:52:31;;;;;;;5.50;4.80;;;9.80;1.00;;;;;;5130135;27;21191;-72
2023/10/28 04:54:58;;;;;;;4.87;4.37;;;9.70;1.00;;;;;;5131862;27;20494;-71
2023/10/28 04:57:25;;;;;;;4.87;4.47;;;9.70;1.00;;;;;;5130714;27;20443;-72
2023/10/28 04:59:52;;;;;;;4.20;3.53;;;9.60;1.00;;;;;;5131184;27;21598;-72
2023/10/28 05:02:19;;;;;;;4.23;3.83;;;9.60;1.00;;;;;;5131519;27;20507;-74
2023/10/28 05:04:46;;;;;;;4.30;3.90;;;9.60;1.00;;;;;;5151586;27;21281;-71
2023/10/28 05:07:15;;;;;;;5.60;4.60;;;9.70;1.00;;;;;;5149486;27;21257;-71
2023/10/28 05:09:42;;;;;;;4.83;4.33;;;9.70;1.00;;;;;;5143999;27;20433;-71
2023/10/28 05:12:09;;;;;;;5.60;5.03;;;9.70;1.00;;;;;;5129867;27;20449;-73
2023/10/28 05:14:35;;;;;;;4.70;4.30;;;9.70;1.00;;;;;;5144752;27;20480;-71
2023/10/28 05:17:02;;;;;;;5.57;4.97;;;9.70;1.00;;;;;;5145971;27;20531;-71
2023/10/28 05:19:30;;;;;;;6.23;4.70;;;9.70;1.00;;;;;;5130188;27;20508;-72
2023/10/28 05:22:01;;;;;;;4.50;4.10;;;9.70;1.00;;;;;;5130388;27;20976;-71
2023/10/28 05:24:30;;;;;;;5.13;4.47;;;9.80;1.00;;;;;;5142148;27;20492;-72
2023/10/28 05:26:57;;;;;;;4.70;4.30;;;9.80;1.00;;;;;;5150528;27;20466;-71
2023/10/28 05:29:24;;;;;;;4.87;4.37;;;9.70;1.00;;;;;;5130427;27;20483;-72
2023/10/28 05:31:51;;;;;;;4.53;4.13;;;9.60;1.00;;;;;;5147785;27;20484;-71
2023/10/28 05:34:20;;;;;;;5.77;5.27;;;9.60;1.00;;;;;;5148554;27;21326;-73
2023/10/28 05:36:47;;;;;;;6.40;5.83;;;9.70;1.00;;;;;;5142192;27;20461;-72
2023/10/28 05:39:13;;;;;;;4.80;4.40;;;9.70;1.00;;;;;;5129377;27;20540;-71
2023/10/28 05:41:42;;;;;;;5.67;5.13;;;9.70;1.00;;;;;;5130405;27;20560;-71
2023/10/28 05:44:09;;;;;;;5.17;4.67;;;9.70;1.00;;;;;;5145409;27;20472;-74
2023/10/28 05:46:35;;;;;;;9.10;5.20;;;9.70;1.00;;;;;;5136196;27;21019;-73
2023/10/28 05:49:02;;;;;;;5.40;4.90;;;9.80;1.00;;;;;;5132603;27;23023;-73
2023/10/28 05:51:35;;;;;;;6.00;5.40;;;9.90;1.00;;;;;;5142340;27;20445;-74
2023/10/28 05:54:02;;;;;;;5.67;5.17;;;9.90;1.00;;;;;;5130349;27;21240;-73
2023/10/28 05:56:30;;;;;;;6.93;6.33;;;9.90;1.00;;;;;;5129415;27;20532;-71
2023/10/28 05:59:00;;;;;;;7.57;6.87;;;10.00;1.00;;;;;;5149110;27;20484;-71
2023/10/28 06:01:27;;;;;;;7.13;6.30;;;10.00;1.00;;;;;;5130533;27;20472;-71
2023/10/28 06:03:54;;;;;;;6.00;5.50;;;9.90;1.00;;;;;;5128224;27;20453;-73
2023/10/28 06:06:21;;;;;;;6.13;5.63;;;9.80;1.00;;;;;;5135171;27;20454;-74
2023/10/28 06:08:48;;;;;;;8.33;7.27;;;9.90;1.00;;;;;;5143970;27;20555;-74
2023/10/28 06:11:15;;;;;;;7.77;7.07;;;10.00;1.00;;;;;;5146603;27;20449;-71
2023/10/28 06:13:42;;;;;;;7.80;6.57;;;10.00;1.00;;;;;;5129531;27;20564;-72
2023/10/28 06:16:11;;;;;;;7.80;6.50;;;10.00;1.00;;;;;;5125467;27;20476;-71
2023/10/28 06:18:38;;;;;;;7.03;6.33;;;10.00;1.00;;;;;;5128750;27;20462;-73
2023/10/28 06:21:05;;;;;;;7.27;6.57;;;9.90;1.00;;;;;;5131023;27;20449;-74
2023/10/28 06:23:32;;;;;;;7.33;6.23;;;9.80;1.00;;;;;;5131280;27;20538;-72
2023/10/28 06:25:59;;;;;;;7.03;6.33;;;9.80;1.00;;;;;;5129421;27;20444;-73
2023/10/28 06:28:27;;;;;;;7.57;6.87;;;9.90;1.00;;;;;;5128620;27;20543;-73
2023/10/28 06:30:54;;;;;;;7.60;6.57;;;10.00;1.00;;;;;;5124902;27;20450;-73
2023/10/28 06:33:24;;;;;;;12.60;11.50;;;10.00;1.00;;;;;;5128637;27;20506;-73
2023/10/28 06:35:51;;;;;;;8.37;7.50;;;10.10;1.00;;;;;;5130725;27;20518;-72
2023/10/28 06:38:18;;;;;;;9.40;8.50;;;10.20;1.00;;;;;;5129553;27;20510;-73
2023/10/28 06:40:47;;;;;;;8.63;7.83;;;10.20;1.00;;;;;;5130355;27;20449;-72
2023/10/28 06:43:14;;;;;;;8.27;7.47;;;10.20;1.00;;;;;;5128699;27;20477;-71
2023/10/28 06:45:41;;;;;;;10.83;8.10;;;10.20;1.00;;;;;;5127747;27;20924;-72
2023/10/28 06:48:08;;;;;;;8.90;8.10;;;10.20;1.00;;;;;;5130490;27;20972;-71
2023/10/28 06:50:36;;;;;;;7.33;6.63;;;10.10;1.00;;;;;;5131517;27;21202;-73
2023/10/28 06:53:03;;;;;;;7.57;6.80;;;10.10;1.00;;;;;;5127174;27;20460;-75
2023/10/28 06:55:30;;;;;;;7.63;6.93;;;10.10;1.00;;;;;;5131331;27;20510;-71
2023/10/28 06:58:00;;;;;;;7.70;7.00;;;10.10;1.00;;;;;;5124213;27;20497;-70
2023/10/28 07:00:28;;;;;;;9.20;8.40;;;10.00;1.00;;;;;;5122750;27;20507;-72
2023/10/28 07:02:56;;;;;;;8.83;8.00;;;10.10;1.00;;;;;;5120785;27;20468;-76
2023/10/28 07:05:25;;;;;;;10.30;7.90;;;10.10;1.00;;;;;;5128057;27;20472;-72
2023/10/28 07:07:54;;;;;;;7.30;6.60;;;10.10;1.00;;;;;;5126849;27;20568;-71
2023/10/28 07:10:25;;;;;;;7.80;7.00;;;10.20;1.00;;;;;;5128510;27;20461;-71
2023/10/28 07:12:52;;;;;;;9.97;9.00;;;10.20;1.00;;;;;;5127240;27;22291;-71
2023/10/28 07:15:19;;;;;;;9.60;8.57;;;10.00;1.00;;;;;;5127815;27;20453;-71
2023/10/28 07:17:46;;;;;;;8.70;7.90;;;10.00;1.00;;;;;;5125649;27;20460;-72
2023/10/28 07:20:13;;;;;;;9.00;8.07;;;10.10;1.00;;;;;;5126117;27;20539;-71
2023/10/28 07:22:41;;;;;;;8.90;8.00;;;10.10;1.00;;;;;;5127547;27;20464;-71
2023/10/28 07:25:11;;;;;;;17.23;13.40;;;10.20;1.00;;;;;;5127511;27;20999;-71
2023/10/28 07:27:38;;;;;;;9.50;8.60;;;10.10;1.00;;;;;;5128226;27;21018;-72
2023/10/28 07:30:06;;;;;;;8.83;8.10;;;10.20;1.00;;;;;;5127784;27;20480;-70
2023/10/28 07:32:33;;;;;;;8.40;7.60;;;10.20;1.00;;;;;;5129117;27;20988;-71
2023/10/28 07:35:00;;;;;;;9.10;8.20;;;10.20;1.00;;;;;;5129224;27;20499;-72
2023/10/28 07:37:29;;;;;;;9.10;8.20;;;10.30;1.00;;;;;;5131140;27;20449;-70
2023/10/28 07:39:56;;;;;;;7.70;6.97;;;10.30;1.00;;;;;;5128848;27;20537;-70
2023/10/28 07:42:26;;;;;;;10.20;9.20;;;10.30;1.00;;;;;;5130902;27;20518;-72
2023/10/28 07:44:53;;;;;;;9.30;8.40;;;10.20;1.00;;;;;;5124671;27;20457;-71
2023/10/28 07:47:20;;;;;;;10.10;8.00;;;10.30;1.00;;;;;;5127381;27;20520;-71
2023/10/28 07:49:47;;;;;;;9.77;8.80;;;10.20;1.00;;;;;;5131236;27;20460;-70
2023/10/28 07:52:14;;;;;;;8.90;8.00;;;10.20;1.00;;;;;;5126420;27;20583;-71
2023/10/28 07:54:41;;;;;;;9.70;8.50;;;10.30;1.00;;;;;;5130803;27;20441;-74
2023/10/28 07:57:08;;;;;;;10.37;8.93;;;10.30;1.00;;;;;;5123023;27;21048;-72
2023/10/28 07:59:37;;;;;;;10.10;9.10;;;10.40;1.00;;;;;;5127307;27;20465;-72
2023/10/28 08:02:06;;;;;;;10.80;9.77;;;10.40;1.00;;;;;;5126841;27;20858;-72
2023/10/28 08:04:33;;;;;;;23.60;18.77;;;10.40;1.00;;;;;;5127514;27;20571;-72
2023/10/28 08:07:00;;;;;;;10.93;9.83;;;10.50;1.00;;;;;;5126685;27;20518;-74
2023/10/28 08:09:28;;;;;;;10.50;9.40;;;10.60;1.00;;;;;;5125835;27;20452;-76
2023/10/28 08:11:55;;;;;;;11.90;9.37;;;10.60;1.00;;;;;;5127978;27;20469;-76
2023/10/28 08:14:22;;;;;;;9.80;8.90;;;10.70;1.00;;;;;;5127404;27;20956;-76
2023/10/28 08:16:50;;;;;;;10.93;9.90;;;10.70;1.00;;;;;;5126816;27;20466;-76
2023/10/28 08:19:17;;;;;;;10.33;9.23;;;10.80;1.00;;;;;;5127715;27;20552;-76
2023/10/28 08:21:44;;;;;;;14.10;9.77;;;10.80;1.00;;;;;;5127180;27;20555;-75
2023/10/28 08:24:12;;;;;;;10.30;9.20;;;10.80;1.00;;;;;;5125527;27;21036;-76
2023/10/28 08:26:40;;;;;;;15.20;10.53;;;10.80;1.00;;;;;;5125626;27;20461;-76
2023/10/28 08:29:06;;;;;;;11.27;10.10;;;10.90;1.00;;;;;;5128496;27;20529;-76
2023/10/28 08:31:33;;;;;;;12.43;10.53;;;10.90;1.00;;;;;;5126898;27;20460;-76
2023/10/28 08:34:04;;;;;;;10.87;9.87;;;11.00;1.00;;;;;;5127817;27;20448;-76
2023/10/28 08:36:31;;;;;;;10.30;9.27;;;11.00;1.00;;;;;;5129769;27;20982;-75
2023/10/28 08:38:58;;;;;;;11.40;10.40;;;11.10;1.00;;;;;;5129627;27;20545;-74
2023/10/28 08:41:25;;;;;;;10.90;9.50;;;11.20;1.00;;;;;;5127871;27;20498;-75
2023/10/28 08:43:54;;;;;;;11.97;10.70;;;11.30;1.00;;;;;;5132062;27;20483;-75
2023/10/28 08:46:21;;;;;;;11.70;10.50;;;11.30;1.00;;;;;;5134365;27;20488;-75
2023/10/28 08:48:48;;;;;;;10.60;9.60;;;11.30;1.00;;;;;;5133710;27;21087;-75
2023/10/28 08:51:17;;;;;;;10.63;9.63;;;11.30;1.00;;;;;;5133814;27;20468;-73
2023/10/28 08:53:46;;;;;;;10.73;9.73;;;11.20;1.00;;;;;;5135509;27;20424;-76
2023/10/28 08:56:18;;;;;;;11.47;10.37;;;11.20;1.00;;;;;;5135980;27;20514;-74
2023/10/28 08:58:48;;;;;;;11.60;10.40;;;11.20;1.00;;;;;;5134756;27;20456;-75
2023/10/28 09:01:16;;;;;;;12.10;10.83;;;11.30;1.00;;;;;;5134003;27;20554;-75
2023/10/28 09:03:43;;;;;;;11.60;10.50;;;11.30;1.00;;;;;;5133586;27;20457;-76
2023/10/28 09:06:11;;;;;;;12.73;10.93;;;11.40;1.00;;;;;;5130054;27;20473;-75
2023/10/28 09:08:40;;;;;;;11.53;10.43;;;11.30;1.00;;;;;;5129217;27;21186;-75
2023/10/28 09:11:07;;;;;;;11.97;10.70;;;11.20;1.00;;;;;;5130322;27;20469;-75
2023/10/28 09:13:34;;;;;;;10.67;9.57;;;11.20;1.00;;;;;;5131335;27;20445;-75
2023/10/28 09:16:02;;;;;;;13.00;11.50;;;11.20;1.00;;;;;;5133645;27;20854;-75
2023/10/28 09:18:38;;;;;;;12.23;11.00;;;11.30;1.00;;;;;;5133851;27;21261;-71
2023/10/28 09:21:08;;;;;;;12.43;11.17;;;11.40;1.00;;;;;;5129377;27;20472;-71
2023/10/28 09:23:35;;;;;;;15.90;14.20;;;11.40;1.00;;;;;;5130637;27;20516;-70
2023/10/28 09:26:04;;;;;;;13.17;11.73;;;11.40;1.00;;;;;;5130984;27;20480;-71
2023/10/28 09:28:31;;;;;;;13.80;11.87;;;11.50;1.00;;;;;;5129168;27;20449;-70
2023/10/28 09:30:59;;;;;;;13.60;12.30;;;11.50;1.00;;;;;;5132160;27;20554;-69
2023/10/28 09:33:26;;;;;;;13.93;11.93;;;11.60;1.00;;;;;;5133487;27;20474;-69
2023/10/28 09:35:54;;;;;;;13.40;12.10;;;11.70;1.00;;;;;;5132234;27;20457;-69
2023/10/28 09:38:22;;;;;;;12.80;11.60;;;11.70;1.00;;;;;;5135208;27;21228;-68
2023/10/28 09:40:49;;;;;;;14.10;12.70;;;11.80;1.00;;;;;;5131931;27;21751;-69
2023/10/28 09:43:18;;;;;;;13.27;12.07;;;11.80;1.00;;;;;;5143774;27;20460;-72
2023/10/28 09:45:50;;;;;;;13.30;11.90;;;11.80;1.00;;;;;;5147465;27;20465;-69
2023/10/28 09:48:18;;;;;;;12.53;11.33;;;11.70;1.00;;;;;;5152829;27;20552;-70
2023/10/28 09:50:49;;;;;;;13.47;12.07;;;11.70;1.00;;;;;;5153410;27;20471;-72
2023/10/28 09:53:17;;;;;;;13.13;12.00;;;11.80;1.00;;;;;;5148964;27;20464;-70
2023/10/28 09:55:46;;;;;;;13.77;12.43;;;11.90;1.00;;;;;;5129619;27;20457;-73
2023/10/28 09:58:20;;;;;;;13.87;12.47;;;12.00;1.00;;;;;;5130516;27;20457;-73
2023/10/28 10:00:48;;;;;;;11.97;10.93;;;12.20;1.00;;;;;;5129559;27;20438;-72
2023/10/28 10:03:30;;;;;;;13.70;12.40;;;12.30;1.00;;;;;;5129678;27;20462;-68
2023/10/28 10:05:58;;;;;;;13.77;12.50;;;12.50;1.00;;;;;;5126227;27;20456;-69
2023/10/28 10:08:25;;;;;;;13.57;12.20;;;12.90;1.00;;;;;;5136901;27;20457;-70
2023/10/28 10:10:55;;;;;;;14.70;11.63;;;13.30;1.00;;;;;;5141650;27;20521;-70
2023/10/28 10:13:23;;;;;;;14.00;12.70;;;13.70;1.00;;;;;;5145383;27;20459;-71
2023/10/28 10:15:55;;;;;;;13.20;12.00;;;13.80;1.00;;;;;;5146741;27;20446;-69
2023/10/28 10:18:32;;;;;;;12.93;11.77;;;13.90;1.00;;;;;;5149743;27;20545;-69
2023/10/28 10:21:06;;;;;;;11.97;10.83;;;14.00;1.00;;;;;;5149611;27;20552;-72
2023/10/28 10:23:44;;;;;;;11.77;10.67;;;13.90;1.00;;;;;;5132271;27;20456;-73
2023/10/28 10:26:25;;;;;;;11.73;10.73;;;13.80;1.00;;;;;;5127170;27;20960;-70
2023/10/28 10:28:55;;;;;;;12.67;11.50;;;13.70;1.00;;;;;;5127668;27;20920;-69
2023/10/28 10:31:30;;;;;;;11.50;10.50;;;13.60;1.00;;;;;;5129924;27;20493;-70
2023/10/28 10:34:05;;;;;;;10.70;9.70;;;13.70;1.00;;;;;;5131957;27;20502;-70
2023/10/28 10:36:35;;;;;;;10.97;10.00;;;13.80;1.00;;;;;;5145668;27;20454;-71
2023/10/28 10:39:14;;;;;;;11.43;10.43;;;14.10;1.00;;;;;;5131463;27;20457;-72
2023/10/28 10:41:42;;;;;;;11.17;10.17;;;14.30;1.00;;;;;;5132310;27;20984;-70
2023/10/28 10:44:24;;;;;;;10.83;9.93;;;14.20;1.00;;;;;;5134671;27;20534;-69
2023/10/28 10:46:51;;;;;;;10.07;9.10;;;14.50;1.00;;;;;;5145077;27;20478;-69
2023/10/28 10:49:18;;;;;;;10.90;10.00;;;14.60;1.00;;;;;;5152090;27;20443;-70
2023/10/28 10:51:46;;;;;;;15.37;14.00;;;14.60;1.00;;;;;;5152301;27;20459;-69
2023/10/28 10:54:12;;;;;;;9.80;8.90;;;14.70;1.00;;;;;;5150275;27;20504;-69
2023/10/28 10:56:40;;;;;;;13.67;12.37;;;14.90;1.00;;;;;;5153807;27;20460;-70
2023/10/28 10:59:07;;;;;;;11.07;10.10;;;15.00;1.00;;;;;;5151259;27;20462;-70
2023/10/28 11:01:35;;;;;;;11.43;10.43;;;15.10;1.00;;;;;;5134410;27;20920;-70
2023/10/28 11:04:02;;;;;;;10.80;9.80;;;15.40;1.00;;;;;;5132176;27;20475;-70
2023/10/28 11:06:29;;;;;;;11.67;10.57;;;15.80;1.00;;;;;;5133584;27;20460;-69
2023/10/28 11:08:56;;;;;;;10.57;9.67;;;15.90;1.00;;;;;;5132259;27;20472;-68
2023/10/28 11:11:25;;;;;;;9.40;8.67;;;15.90;1.00;;;;;;5139628;27;20497;-69
2023/10/28 11:13:52;;;;;;;8.90;8.10;;;16.00;1.00;;;;;;5134405;27;20475;-68
2023/10/28 11:16:22;;;;;;;9.53;8.73;;;15.60;1.00;;;;;;5146133;27;20978;-69
2023/10/28 11:18:50;;;;;;;10.30;9.30;;;15.40;1.00;;;;;;5143375;27;20921;-70
2023/10/28 11:21:18;;;;;;;9.77;8.97;;;15.40;1.00;;;;;;5132785;27;20560;-70
2023/10/28 11:23:46;;;;;;;9.40;8.60;;;15.50;1.00;;;;;;5148793;27;20455;-68
2023/10/28 11:26:18;;;;;;;9.00;8.20;;;15.20;1.00;;;;;;5141431;27;20446;-69
2023/10/28 11:28:45;;;;;;;12.97;9.70;;;15.20;1.00;;;;;;5150281;27;20539;-68
2023/10/28 11:31:12;;;;;;;9.40;8.60;;;15.20;1.00;;;;;;5147319;27;20563;-70
2023/10/28 11:33:39;;;;;;;10.10;9.30;;;15.10;1.00;;;;;;5149688;27;21114;-69
2023/10/28 11:36:09;;;;;;;10.13;9.33;;;15.10;1.00;;;;;;5148989;27;21576;-69
2023/10/28 11:38:36;;;;;;;9.70;8.90;;;15.10;1.00;;;;;;5146961;27;20528;-69
2023/10/28 11:41:04;;;;;;;10.20;9.30;;;15.00;1.00;;;;;;5147331;27;20456;-70
2023/10/28 11:43:32;;;;;;;9.40;8.60;;;15.00;1.00;;;;;;5132433;27;20471;-70
2023/10/28 11:45:59;;;;;;;10.53;9.53;;;15.10;1.00;;;;;;5136352;27;20911;-71
2023/10/28 11:48:26;;;;;;;10.70;9.77;;;14.90;1.00;;;;;;5132111;27;20490;-70
2023/10/28 11:50:53;;;;;;;9.97;9.07;;;14.80;1.00;;;;;;5148653;27;20478;-70
2023/10/28 11:53:24;;;;;;;10.60;9.53;;;14.80;1.00;;;;;;5129991;27;20497;-69
2023/10/28 11:55:52;;;;;;;10.37;9.47;;;15.00;1.00;;;;;;5126103;27;20556;-69
2023/10/28 11:58:19;;;;;;;10.87;9.97;;;15.20;1.00;;;;;;5126477;27;20519;-70
2023/10/28 12:00:50;;;;;;;10.20;9.30;;;15.40;1.00;;;;;;5128296;27;20548;-70
2023/10/28 12:03:18;;;;;;;9.93;9.10;;;15.50;1.00;;;;;;5137272;27;20531;-68
2023/10/28 12:05:45;;;;;;;10.47;9.50;;;15.30;1.00;;;;;;5147071;27;20498;-70
2023/10/28 12:08:12;;;;;;;9.87;8.97;;;14.80;1.00;;;;;;5148309;27;20500;-70
2023/10/28 12:10:43;;;;;;;10.50;9.50;;;14.60;1.00;;;;;;5141374;27;20464;-71
2023/10/28 12:13:11;;;;;;;10.20;9.30;;;14.60;1.00;;;;;;5125738;27;20516;-69
2023/10/28 12:15:38;;;;;;;9.30;8.50;;;14.50;1.00;;;;;;5138387;27;20549;-70
2023/10/28 12:18:05;;;;;;;9.57;8.67;;;14.20;1.00;;;;;;5137230;27;21597;-70
2023/10/28 12:20:32;;;;;;;9.00;8.30;;;14.20;1.00;;;;;;5141241;27;20463;-69
2023/10/28 12:22:59;;;;;;;8.73;7.93;;;14.40;1.00;;;;;;5139441;27;20460;-66
2023/10/28 12:25:26;;;;;;;8.53;7.73;;;14.40;1.00;;;;;;5125915;27;20496;-75
2023/10/28 12:27:54;;;;;;;10.13;9.23;;;14.50;1.00;;;;;;5145132;27;20458;-69
2023/10/28 12:30:22;;;;;;;11.17;8.40;;;14.60;1.00;;;;;;5130127;27;20462;-73
2023/10/28 12:32:50;;;;;;;10.07;9.17;;;14.70;1.00;;;;;;5129045;27;20954;-69
2023/10/28 12:35:18;;;;;;;13.17;11.93;;;14.70;1.00;;;;;;5127987;27;20456;-71
2023/10/28 12:37:45;;;;;;;10.30;7.40;;;14.60;1.00;;;;;;5144960;27;20456;-70
2023/10/28 12:40:12;;;;;;;10.00;9.10;;;14.60;1.00;;;;;;5138628;27;20485;-70
2023/10/28 12:42:39;;;;;;;8.37;7.63;;;14.60;1.00;;;;;;5137965;27;20529;-69
2023/10/28 12:45:09;;;;;;;9.50;8.70;;;14.60;1.00;;;;;;5139224;27;20483;-71
2023/10/28 12:47:36;;;;;;;9.70;8.83;;;14.50;1.00;;;;;;5129794;27;20472;-76
2023/10/28 12:50:04;;;;;;;10.70;9.80;;;14.30;1.00;;;;;;5132250;27;20554;-76
2023/10/28 12:52:31;;;;;;;10.80;9.83;;;14.00;1.00;;;;;;5149262;27;21247;-76
2023/10/28 12:55:02;;;;;;;11.10;9.40;;;13.80;1.00;;;;;;5149694;27;21020;-76